Terminal Aerodrome Forecast
Issued by NWS St Louis, MO

Home | Current Version | Previous Version | Graphics & Text | Print | Product List | Glossary On
Versions: 1 2 3 4 5 6 7 8 9 10 11 12 13 14 15 16 17 18 19 20 21 22 23
000
FTUS43 KLSX 222000 AAA
TAFSTL
TAF AMD
KSTL 222051Z 2221/2324 25007KT P6SM BKN200
     FM230000 VRB04KT P6SM BKN120
     FM231200 16006KT P6SM BKN080=

USA.gov is the U.S. government's official web portal to all federal, state and local government web resources and services.